createdAt,value
2019-04-16T00:00:24.246Z,100689.16
2019-04-16T00:01:26.650Z,100691.26
2019-04-16T00:02:25.914Z,100682.34
2019-04-16T00:03:05.766Z,100682.34
2019-04-16T00:03:46.618Z,100693.27
2019-04-16T00:04:53.706Z,100687.26
2019-04-16T00:05:47.678Z,100693.64
2019-04-16T00:06:47.220Z,100690.69
2019-04-16T00:07:41.843Z,100690.69
2019-04-16T00:08:27.644Z,100701.94
2019-04-16T00:09:16.606Z,100711.55
2019-04-16T00:10:12.659Z,100711.55
2019-04-16T00:10:57.782Z,100700.98
2019-04-16T00:11:54.626Z,100717.98
2019-04-16T00:12:50.874Z,100717.98
2019-04-16T00:13:55.918Z,100710.92
2019-04-16T00:14:38.006Z,100710.92
2019-04-16T00:15:17.312Z,100712.30
2019-04-16T00:15:55.611Z,100712.30
2019-04-16T00:16:33.701Z,100719.73
2019-04-16T00:17:13.201Z,100714.87
2019-04-16T00:17:51.394Z,100723.73
2019-04-16T00:18:30.868Z,100723.73
2019-04-16T00:19:09.169Z,100728.53
2019-04-16T00:19:47.233Z,100721.16
2019-04-16T00:20:25.234Z,100722.91
2019-04-16T00:21:33.372Z,100734.12
2019-04-16T00:22:32.711Z,100733.45
2019-04-16T00:23:19.988Z,100737.88
2019-04-16T00:24:20.488Z,100743.12
2019-04-16T00:25:01.320Z,100734.12
2019-04-16T00:25:40.436Z,100740.12
2019-04-16T00:26:18.459Z,100742.95
2019-04-16T00:26:59.360Z,100741.77
2019-04-16T00:27:38.860Z,100742.45
2019-04-16T00:28:16.859Z,100740.72
2019-04-16T00:28:54.872Z,100746.03
2019-04-16T00:29:34.573Z,100748.13
2019-04-16T00:30:13.390Z,100750.22
2019-04-16T00:30:51.373Z,100749.55
2019-04-16T00:31:31.049Z,100751.33
2019-04-16T00:32:18.508Z,100755.05
2019-04-16T00:32:56.631Z,100756.52
2019-04-16T00:33:34.588Z,100764.45
2019-04-16T00:34:14.224Z,100760.80
2019-04-16T00:34:52.216Z,100752.55
2019-04-16T00:35:31.486Z,100758.08
2019-04-16T00:36:09.553Z,100756.33
2019-04-16T00:36:49.318Z,100761.38
2019-04-16T00:37:29.007Z,100765.09
2019-04-16T00:38:08.713Z,100762.02
2019-04-16T00:38:47.829Z,100765.95
2019-04-16T00:39:29.507Z,100764.45
2019-04-16T00:40:09.682Z,100765.41
2019-04-16T00:40:49.623Z,100767.17
2019-04-16T00:41:27.610Z,100761.95
2019-04-16T00:42:05.721Z,100768.59
2019-04-16T00:42:43.748Z,100768.91
2019-04-16T00:43:21.691Z,100765.80
2019-04-16T00:43:59.542Z,100767.89
2019-04-16T00:44:37.712Z,100774.55
2019-04-16T00:45:19.723Z,100767.39
2019-04-16T00:45:59.342Z,100770.83
2019-04-16T00:46:37.357Z,100769.64
2019-04-16T00:47:15.341Z,100775.47
2019-04-16T00:47:54.426Z,100778.06
2019-04-16T00:48:33.437Z,100777.42
2019-04-16T00:49:12.695Z,100778.30
2019-04-16T00:49:50.757Z,100773.34
2019-04-16T00:50:28.625Z,100775.42
2019-04-16T00:51:06.598Z,100773.98
2019-04-16T00:51:44.583Z,100772.55
2019-04-16T00:52:22.549Z,100776.30
2019-04-16T00:53:00.560Z,100780.30
2019-04-16T00:53:39.962Z,100781.82
2019-04-16T00:54:17.943Z,100779.53
2019-04-16T00:54:55.925Z,100777.77
2019-04-16T00:55:35.152Z,100781.71
2019-04-16T00:56:13.462Z,100779.95
2019-04-16T00:56:54.638Z,100777.06
2019-04-16T00:57:32.657Z,100783.72
2019-04-16T00:58:10.760Z,100779.47
2019-04-16T00:58:53.101Z,100782.34
2019-04-16T00:59:31.110Z,100781.14
2019-04-16T01:00:09.860Z,100781.20
2019-04-16T01:00:47.774Z,100786.03
2019-04-16T01:01:25.698Z,100789.94
2019-04-16T01:02:03.883Z,100783.28
2019-04-16T01:02:41.864Z,100785.03
2019-04-16T01:03:19.850Z,100790.09
2019-04-16T01:03:57.834Z,100784.50
2019-04-16T01:04:35.812Z,100792.25
2019-04-16T01:05:15.154Z,100787.52
2019-04-16T01:05:53.067Z,100792.45
2019-04-16T01:06:31.362Z,100795.80
2019-04-16T01:07:09.364Z,100796.53
2019-04-16T01:07:47.392Z,100795.88
2019-04-16T01:08:26.534Z,100788.66
2019-04-16T01:09:05.249Z,100795.05
2019-04-16T01:09:43.300Z,100798.70
2019-04-16T01:10:24.758Z,100798.05
2019-04-16T01:11:03.182Z,100795.83
2019-04-16T01:11:42.923Z,100803.84
2019-04-16T01:12:20.775Z,100794.78
2019-04-16T01:12:58.770Z,100803.19
2019-04-16T01:13:36.803Z,100807.18
2019-04-16T01:14:14.709Z,100803.09
2019-04-16T01:14:52.736Z,100807.55
2019-04-16T01:15:32.149Z,100805.30
2019-04-16T01:16:11.859Z,100806.70
2019-04-16T01:16:50.938Z,100805.75
2019-04-16T01:17:33.445Z,100804.98
2019-04-16T01:18:10.547Z,100807.85
2019-04-16T01:18:49.397Z,100809.35
2019-04-16T01:19:27.774Z,100802.91
2019-04-16T01:20:05.863Z,100808.23
2019-04-16T01:20:44.046Z,100805.87
2019-04-16T01:21:22.172Z,100805.20
2019-04-16T01:22:00.023Z,100799.55
2019-04-16T01:22:38.047Z,100802.08
2019-04-16T01:23:18.456Z,100797.59
2019-04-16T01:23:58.593Z,100801.47
2019-04-16T01:24:36.510Z,100806.59
2019-04-16T01:25:14.502Z,100802.50
2019-04-16T01:25:55.579Z,100800.58
2019-04-16T01:26:33.417Z,100805.70
2019-04-16T01:27:11.336Z,100805.83
2019-04-16T01:27:53.965Z,100809.91
2019-04-16T01:28:34.750Z,100807.09
2019-04-16T01:29:16.660Z,100805.63
2019-04-16T01:29:54.601Z,100811.53
2019-04-16T01:30:42.230Z,100813.39
2019-04-16T01:31:38.689Z,100804.31
2019-04-16T01:32:50.400Z,100808.64
2019-04-16T01:33:36.171Z,100808.69
2019-04-16T01:34:42.223Z,100809.62
2019-04-16T01:35:31.845Z,100806.45
2019-04-16T01:36:46.983Z,100808.27
2019-04-16T01:37:36.115Z,100807.86
2019-04-16T01:38:47.356Z,100814.02
2019-04-16T01:39:29.322Z,100813.00
2019-04-16T01:40:09.551Z,100817.22
2019-04-16T01:40:55.436Z,100814.28
2019-04-16T01:41:35.067Z,100818.42
2019-04-16T01:42:13.074Z,100820.47
2019-04-16T01:42:54.692Z,100821.88
2019-04-16T01:43:33.741Z,100818.70
2019-04-16T01:44:11.689Z,100819.39
2019-04-16T01:44:50.110Z,100823.07
2019-04-16T01:45:30.413Z,100823.30
2019-04-16T01:46:11.432Z,100822.28
2019-04-16T01:46:49.480Z,100824.67
2019-04-16T01:47:30.310Z,100828.77
2019-04-16T01:48:08.351Z,100826.16
2019-04-16T01:48:46.594Z,100828.78
2019-04-16T01:49:26.596Z,100825.59
2019-04-16T01:50:04.964Z,100827.88
2019-04-16T01:50:43.782Z,100833.60
2019-04-16T01:51:22.371Z,100833.64
2019-04-16T01:52:00.330Z,100835.23
2019-04-16T01:52:38.355Z,100831.59
2019-04-16T01:53:18.350Z,100830.94
2019-04-16T01:53:57.613Z,100830.02
2019-04-16T01:54:35.577Z,100828.77
2019-04-16T01:55:13.537Z,100831.62
2019-04-16T01:55:51.554Z,100829.33
2019-04-16T01:56:30.707Z,100830.02
2019-04-16T01:57:09.874Z,100824.91
2019-04-16T01:57:52.116Z,100825.25
2019-04-16T01:58:33.583Z,100819.11
2019-04-16T01:59:10.038Z,100825.97
2019-04-16T01:59:47.961Z,100823.91
2019-04-16T02:00:27.123Z,100827.77
2019-04-16T02:01:05.183Z,100829.81
2019-04-16T02:01:43.592Z,100824.81
2019-04-16T02:02:22.635Z,100828.70
2019-04-16T02:03:00.909Z,100829.69
2019-04-16T02:03:40.565Z,100825.48
2019-04-16T02:04:19.940Z,100834.00
2019-04-16T02:04:59.451Z,100831.59
2019-04-16T02:05:40.663Z,100830.41
2019-04-16T02:06:18.572Z,100834.93
2019-04-16T02:07:10.450Z,100832.08
2019-04-16T02:08:07.192Z,100832.98
2019-04-16T02:08:45.318Z,100833.03
2019-04-16T02:09:24.471Z,100835.06
2019-04-16T02:10:13.837Z,100833.45
2019-04-16T02:10:56.646Z,100834.17
2019-04-16T02:11:38.801Z,100829.68
2019-04-16T02:12:20.565Z,100830.48
2019-04-16T02:13:02.638Z,100830.64
2019-04-16T02:13:45.803Z,100832.27
2019-04-16T02:14:24.179Z,100829.11
2019-04-16T02:15:05.952Z,100827.28
2019-04-16T02:15:45.888Z,100827.88
2019-04-16T02:16:26.498Z,100827.77
2019-04-16T02:17:10.243Z,100830.03
2019-04-16T02:17:51.751Z,100828.20
2019-04-16T02:18:32.618Z,100828.91
2019-04-16T02:19:16.764Z,100836.85
2019-04-16T02:19:56.933Z,100834.13
2019-04-16T02:20:39.238Z,100834.74
2019-04-16T02:21:19.953Z,100834.93
2019-04-16T02:21:59.497Z,100833.83
2019-04-16T02:22:45.098Z,100830.34
2019-04-16T02:23:26.038Z,100826.32
2019-04-16T02:24:06.880Z,100832.53
2019-04-16T02:24:47.843Z,100833.43
2019-04-16T02:25:29.256Z,100822.06
2019-04-16T02:26:14.606Z,100828.23
2019-04-16T02:27:01.044Z,100828.23
2019-04-16T02:27:43.858Z,100830.52
2019-04-16T02:28:28.938Z,100830.16
2019-04-16T02:29:09.749Z,100829.80
2019-04-16T02:29:53.817Z,100830.26
2019-04-16T02:30:39.042Z,100828.66
2019-04-16T02:31:18.988Z,100826.47
2019-04-16T02:31:59.757Z,100824.08
2019-04-16T02:32:47.635Z,100834.80
2019-04-16T02:33:35.215Z,100831.59
2019-04-16T02:34:16.270Z,100829.53
2019-04-16T02:34:54.932Z,100832.23
2019-04-16T02:35:35.891Z,100834.59
2019-04-16T02:36:18.211Z,100827.88
2019-04-16T02:37:03.254Z,100831.98
2019-04-16T02:37:44.303Z,100826.73
2019-04-16T02:38:23.236Z,100832.44
2019-04-16T02:39:10.067Z,100831.16
2019-04-16T02:39:51.831Z,100831.95
2019-04-16T02:40:36.526Z,100835.36
2019-04-16T02:41:25.079Z,100831.70
2019-04-16T02:42:06.114Z,100834.22
2019-04-16T02:42:49.729Z,100835.23
2019-04-16T02:43:39.658Z,100831.66
2019-04-16T02:44:20.153Z,100833.11
2019-04-16T02:45:08.345Z,100838.45
2019-04-16T02:45:56.742Z,100835.23
2019-04-16T02:46:34.543Z,100829.09
2019-04-16T02:47:18.215Z,100838.31
2019-04-16T02:48:04.698Z,100839.78
2019-04-16T02:48:50.025Z,100837.27
2019-04-16T02:49:24.993Z,100839.30
2019-04-16T02:50:04.382Z,100841.55
2019-04-16T02:50:48.555Z,100847.01
2019-04-16T02:51:42.030Z,100850.45
2019-04-16T02:52:50.419Z,100844.97
2019-04-16T02:53:42.246Z,100843.59
2019-04-16T02:54:33.888Z,100834.23
2019-04-16T02:55:42.857Z,100840.38
2019-04-16T02:56:36.548Z,100844.49
2019-04-16T02:57:33.180Z,100849.33
2019-04-16T02:58:19.935Z,100843.98
2019-04-16T02:59:13.411Z,100851.40
2019-04-16T02:59:50.522Z,100852.28
2019-04-16T03:00:36.481Z,100854.67
2019-04-16T03:01:25.825Z,100860.70
2019-04-16T03:02:23.045Z,100858.19
2019-04-16T03:03:07.124Z,100856.59
2019-04-16T03:03:49.480Z,100850.13
2019-04-16T03:04:32.373Z,100847.69
2019-04-16T03:05:29.102Z,100852.82
2019-04-16T03:06:06.255Z,100849.94
2019-04-16T03:06:45.624Z,100843.89
2019-04-16T03:07:23.904Z,100847.78
2019-04-16T03:08:04.824Z,100846.19
2019-04-16T03:08:43.549Z,100843.01
2019-04-16T03:09:21.585Z,100848.48
2019-04-16T03:10:01.370Z,100844.68
2019-04-16T03:10:41.805Z,100846.38
2019-04-16T03:11:20.709Z,100845.40
2019-04-16T03:11:59.441Z,100851.57
2019-04-16T03:12:37.402Z,100849.05
2019-04-16T03:13:17.252Z,100846.03
2019-04-16T03:13:59.360Z,100852.42
2019-04-16T03:14:38.324Z,100850.91
2019-04-16T03:15:24.169Z,100849.48
2019-04-16T03:16:24.333Z,100850.93
2019-04-16T03:17:13.676Z,100850.65
2019-04-16T03:17:51.578Z,100854.52
2019-04-16T03:18:47.030Z,100856.17
2019-04-16T03:19:29.433Z,100861.66
2019-04-16T03:20:11.279Z,100859.73
2019-04-16T03:20:52.490Z,100863.42
2019-04-16T03:21:30.561Z,100862.52
2019-04-16T03:22:09.018Z,100864.77
2019-04-16T03:22:48.137Z,100868.66
2019-04-16T03:23:26.022Z,100863.83
2019-04-16T03:24:08.037Z,100871.41
2019-04-16T03:24:44.911Z,100862.38
2019-04-16T03:25:22.868Z,100861.16
2019-04-16T03:26:00.758Z,100864.36
2019-04-16T03:26:44.235Z,100864.64
2019-04-16T03:27:22.834Z,100869.47
2019-04-16T03:28:02.862Z,100863.98
2019-04-16T03:28:42.019Z,100865.72
2019-04-16T03:29:19.955Z,100864.98
2019-04-16T03:30:02.966Z,100866.56
2019-04-16T03:30:42.413Z,100868.16
2019-04-16T03:31:22.484Z,100868.16
2019-04-16T03:31:59.319Z,100874.80
2019-04-16T03:32:49.153Z,100866.56
2019-04-16T03:33:28.959Z,100868.81
2019-04-16T03:34:08.046Z,100868.16
2019-04-16T03:34:47.198Z,100863.55
2019-04-16T03:35:26.725Z,100866.95
2019-04-16T03:36:04.814Z,100862.39
2019-04-16T03:36:42.898Z,100862.91
2019-04-16T03:37:22.156Z,100866.89
2019-04-16T03:38:05.173Z,100859.89
2019-04-16T03:38:42.116Z,100864.58
2019-04-16T03:39:22.062Z,100857.25
2019-04-16T03:40:00.089Z,100859.64
2019-04-16T03:40:39.235Z,100861.30
2019-04-16T03:41:18.544Z,100866.36
2019-04-16T03:41:56.902Z,100859.06
2019-04-16T03:42:35.269Z,100863.53
2019-04-16T03:43:13.172Z,100858.84
2019-04-16T03:43:51.128Z,100857.69
2019-04-16T03:44:29.080Z,100861.23
2019-04-16T03:45:09.387Z,100852.64
2019-04-16T03:45:47.094Z,100852.42
2019-04-16T03:46:25.421Z,100855.66
2019-04-16T03:47:07.028Z,100853.14
2019-04-16T03:47:50.973Z,100853.83
2019-04-16T03:48:28.102Z,100850.93
2019-04-16T03:49:07.233Z,100848.19
2019-04-16T03:49:45.260Z,100852.58
2019-04-16T03:50:23.179Z,100848.03
2019-04-16T03:51:03.593Z,100843.92
2019-04-16T03:51:41.664Z,100843.92
2019-04-16T03:52:19.648Z,100845.72
2019-04-16T03:52:57.601Z,100836.48
2019-04-16T03:53:37.297Z,100837.28
2019-04-16T03:54:19.288Z,100836.92
2019-04-16T03:54:59.929Z,100828.34
2019-04-16T03:55:37.880Z,100833.11
2019-04-16T03:56:16.032Z,100821.70
2019-04-16T03:56:54.143Z,100832.03
2019-04-16T03:57:35.257Z,100829.94
2019-04-16T03:58:14.299Z,100828.12
2019-04-16T03:58:52.562Z,100828.12
2019-04-16T03:59:30.925Z,100828.48
2019-04-16T04:00:12.909Z,100825.97
2019-04-16T04:00:52.577Z,100827.34
2019-04-16T04:01:30.619Z,100833.26
2019-04-16T04:02:09.629Z,100831.20
2019-04-16T04:02:47.471Z,100832.78
2019-04-16T04:03:26.148Z,100831.99
2019-04-16T04:04:06.092Z,100830.88
2019-04-16T04:04:44.298Z,100832.57
2019-04-16T04:05:22.423Z,100823.63
2019-04-16T04:06:00.363Z,100828.61
2019-04-16T04:06:39.660Z,100825.39
2019-04-16T04:07:18.244Z,100824.45
2019-04-16T04:07:57.917Z,100824.02
2019-04-16T04:08:36.120Z,100825.25
2019-04-16T04:09:18.714Z,100825.89
2019-04-16T04:09:58.738Z,100825.97
2019-04-16T04:10:37.733Z,100826.87
2019-04-16T04:11:15.886Z,100825.53
2019-04-16T04:11:56.465Z,100822.10
2019-04-16T04:12:37.874Z,100820.48
2019-04-16T04:13:18.604Z,100815.94
2019-04-16T04:13:56.521Z,100819.11
2019-04-16T04:14:34.513Z,100817.16
2019-04-16T04:15:16.089Z,100814.75
2019-04-16T04:15:55.362Z,100810.05
2019-04-16T04:16:34.802Z,100811.50
2019-04-16T04:17:12.790Z,100813.80
2019-04-16T04:17:50.716Z,100812.43
2019-04-16T04:18:29.932Z,100807.59
2019-04-16T04:19:08.028Z,100809.41
2019-04-16T04:19:46.128Z,100803.27
2019-04-16T04:20:26.818Z,100806.66
2019-04-16T04:21:05.225Z,100805.72
2019-04-16T04:21:43.124Z,100808.25
2019-04-16T04:22:25.941Z,100807.88
2019-04-16T04:23:03.800Z,100809.03
2019-04-16T04:23:41.712Z,100804.20
2019-04-16T04:24:19.941Z,100808.10
2019-04-16T04:25:00.548Z,100805.58
2019-04-16T04:25:41.089Z,100804.78
2019-04-16T04:26:19.042Z,100801.68
2019-04-16T04:26:57.054Z,100806.01
2019-04-16T04:27:35.255Z,100801.46
2019-04-16T04:28:18.497Z,100802.11
2019-04-16T04:28:54.096Z,100800.45
2019-04-16T04:29:34.091Z,100800.09
2019-04-16T04:30:17.038Z,100800.88
2019-04-16T04:30:57.718Z,100804.06
2019-04-16T04:31:37.778Z,100802.18
2019-04-16T04:32:18.413Z,100798.50
2019-04-16T04:32:56.380Z,100799.66
2019-04-16T04:33:41.981Z,100798.64
2019-04-16T04:34:17.858Z,100796.37
2019-04-16T04:34:57.540Z,100801.70
2019-04-16T04:35:35.490Z,100797.83
2019-04-16T04:36:18.638Z,100803.59
2019-04-16T04:36:58.718Z,100798.20
2019-04-16T04:37:34.549Z,100794.12
2019-04-16T04:38:14.867Z,100798.88
2019-04-16T04:38:52.841Z,100798.99
2019-04-16T04:39:32.446Z,100795.12
2019-04-16T04:40:15.368Z,100787.13
2019-04-16T04:40:50.841Z,100792.03
2019-04-16T04:41:29.463Z,100790.93
2019-04-16T04:42:07.674Z,100791.02
2019-04-16T04:42:45.868Z,100791.20
2019-04-16T04:43:23.923Z,100787.09
2019-04-16T04:44:04.318Z,100790.41
2019-04-16T04:44:46.856Z,100786.39
2019-04-16T04:45:23.382Z,100779.84
2019-04-16T04:46:02.432Z,100787.86
2019-04-16T04:46:43.172Z,100783.81
2019-04-16T04:47:20.754Z,100784.47
2019-04-16T04:47:58.758Z,100784.39
2019-04-16T04:48:37.907Z,100784.53
2019-04-16T04:49:18.365Z,100778.39
2019-04-16T04:49:56.351Z,100783.03
2019-04-16T04:50:35.376Z,100782.55
2019-04-16T04:51:14.495Z,100777.52
2019-04-16T04:51:52.682Z,100782.27
2019-04-16T04:52:30.988Z,100783.80
2019-04-16T04:53:12.167Z,100783.55
2019-04-16T04:53:51.978Z,100779.72
2019-04-16T04:54:30.121Z,100784.70
2019-04-16T04:55:11.465Z,100779.69
2019-04-16T04:55:51.179Z,100774.73
2019-04-16T04:56:29.167Z,100776.68
2019-04-16T04:57:11.971Z,100780.95
2019-04-16T04:57:51.329Z,100770.25
2019-04-16T04:58:34.037Z,100774.14
2019-04-16T04:59:14.387Z,100783.27
2019-04-16T04:59:54.435Z,100781.89
2019-04-16T05:00:33.573Z,100777.59
2019-04-16T05:01:14.262Z,100772.59
2019-04-16T05:01:52.330Z,100771.22
2019-04-16T05:02:30.226Z,100777.61
2019-04-16T05:03:15.857Z,100772.14
2019-04-16T05:04:21.459Z,100773.28
2019-04-16T05:05:15.898Z,100773.63
2019-04-16T05:05:56.072Z,100774.53
2019-04-16T05:06:37.814Z,100771.42
2019-04-16T05:07:15.885Z,100767.33
2019-04-16T05:07:59.773Z,100764.44
2019-04-16T05:08:40.062Z,100765.38
2019-04-16T05:09:17.944Z,100767.50
2019-04-16T05:09:55.889Z,100758.70
2019-04-16T05:10:36.693Z,100757.78
2019-04-16T05:11:15.790Z,100755.27
2019-04-16T05:11:53.468Z,100762.27
2019-04-16T05:12:31.649Z,100760.61
2019-04-16T05:13:09.772Z,100755.09
2019-04-16T05:13:47.678Z,100759.63
2019-04-16T05:14:26.913Z,100756.63
2019-04-16T05:15:04.919Z,100752.63
2019-04-16T05:15:46.243Z,100750.39
2019-04-16T05:16:26.018Z,100755.95
2019-04-16T05:17:06.542Z,100755.31
2019-04-16T05:17:44.239Z,100760.16
2019-04-16T05:18:23.243Z,100753.84
2019-04-16T05:19:01.537Z,100746.91
2019-04-16T05:19:39.578Z,100752.50
2019-04-16T05:20:17.418Z,100751.06
2019-04-16T05:20:58.658Z,100752.33
2019-04-16T05:21:36.413Z,100751.91
2019-04-16T05:22:14.526Z,100756.46
2019-04-16T05:22:54.520Z,100762.61
2019-04-16T05:23:32.498Z,100752.61
2019-04-16T05:24:12.127Z,100756.69
2019-04-16T05:24:50.140Z,100751.92
2019-04-16T05:25:34.140Z,100753.64
2019-04-16T05:26:12.312Z,100753.39
2019-04-16T05:26:51.951Z,100745.74
2019-04-16T05:27:31.634Z,100744.61
2019-04-16T05:28:12.068Z,100744.12
2019-04-16T05:28:50.967Z,100742.99
2019-04-16T05:29:31.413Z,100739.13
2019-04-16T05:30:10.353Z,100737.98
2019-04-16T05:30:52.162Z,100735.37
2019-04-16T05:31:31.109Z,100738.75
2019-04-16T05:32:09.137Z,100732.00
2019-04-16T05:32:47.293Z,100728.58
2019-04-16T05:33:26.976Z,100729.69
2019-04-16T05:34:07.308Z,100726.27
2019-04-16T05:34:46.503Z,100729.78
2019-04-16T05:35:26.145Z,100728.07
2019-04-16T05:36:05.348Z,100724.42
2019-04-16T05:36:46.597Z,100721.20
2019-04-16T05:37:24.689Z,100721.88
2019-04-16T05:38:04.358Z,100726.42
2019-04-16T05:38:45.240Z,100728.92
2019-04-16T05:39:24.356Z,100723.00
2019-04-16T05:40:02.907Z,100723.91
2019-04-16T05:40:40.987Z,100722.95
2019-04-16T05:41:22.071Z,100726.02
2019-04-16T05:42:00.425Z,100726.59
2019-04-16T05:42:40.009Z,100723.86
2019-04-16T05:43:18.026Z,100720.11
2019-04-16T05:43:58.507Z,100722.03
2019-04-16T05:44:35.777Z,100719.03
2019-04-16T05:45:14.236Z,100719.03
2019-04-16T05:45:52.238Z,100712.55
2019-04-16T05:46:30.683Z,100713.11
2019-04-16T05:47:09.173Z,100716.52
2019-04-16T05:47:49.106Z,100716.52
2019-04-16T05:48:26.901Z,100707.20
2019-04-16T05:49:06.530Z,100706.30
2019-04-16T05:49:45.668Z,100707.89
2019-04-16T05:50:28.736Z,100704.03
2019-04-16T05:51:03.827Z,100698.80
2019-04-16T05:51:44.077Z,100699.61
2019-04-16T05:52:21.949Z,100699.84
2019-04-16T05:53:00.738Z,100695.64
2019-04-16T05:53:40.937Z,100695.10
2019-04-16T05:54:37.209Z,100690.19
2019-04-16T05:55:22.472Z,100688.28
2019-04-16T05:56:07.095Z,100690.45
2019-04-16T05:56:48.502Z,100690.45
2019-04-16T05:57:29.118Z,100687.95
2019-04-16T05:58:07.066Z,100685.22
2019-04-16T05:58:45.035Z,100691.81
2019-04-16T05:59:24.668Z,100689.65
2019-04-16T06:00:09.084Z,100689.08
2019-04-16T06:01:04.376Z,100684.19
2019-04-16T06:01:46.462Z,100689.65
2019-04-16T06:02:39.552Z,100682.72
2019-04-16T06:03:20.654Z,100680.73
2019-04-16T06:03:57.732Z,100675.73
2019-04-16T06:04:36.593Z,100678.45
2019-04-16T06:05:15.984Z,100674.48
2019-04-16T06:05:56.309Z,100671.08
2019-04-16T06:06:33.824Z,100673.95
2019-04-16T06:07:12.006Z,100673.50
2019-04-16T06:07:52.091Z,100661.27
2019-04-16T06:08:30.430Z,100663.23
2019-04-16T06:09:12.250Z,100661.30
2019-04-16T06:09:51.161Z,100664.82
2019-04-16T06:10:31.155Z,100651.97
2019-04-16T06:11:10.796Z,100655.61
2019-04-16T06:11:49.095Z,100653.55
2019-04-16T06:12:39.641Z,100650.73
2019-04-16T06:13:46.376Z,100655.17
2019-04-16T06:14:40.683Z,100655.84
2019-04-16T06:15:37.692Z,100658.80
2019-04-16T06:16:39.899Z,100655.95
2019-04-16T06:17:51.673Z,100663.13
2019-04-16T06:19:03.054Z,100654.25
2019-04-16T06:20:05.324Z,100644.25
2019-04-16T06:20:52.945Z,100641.63
2019-04-16T06:21:56.438Z,100638.11
2019-04-16T06:22:47.737Z,100634.09
2019-04-16T06:23:44.097Z,100630.31
2019-04-16T06:24:35.833Z,100631.66
2019-04-16T06:25:29.919Z,100634.53
2019-04-16T06:26:29.566Z,100629.66
2019-04-16T06:27:30.259Z,100627.40
2019-04-16T06:28:26.601Z,100626.49
2019-04-16T06:29:10.868Z,100626.70
2019-04-16T06:30:12.933Z,100625.36
2019-04-16T06:31:10.288Z,100624.21
2019-04-16T06:32:11.886Z,100624.69
2019-04-16T06:33:05.765Z,100631.03
2019-04-16T06:33:56.137Z,100632.84
2019-04-16T06:34:50.244Z,100630.77
2019-04-16T06:35:45.011Z,100626.10
2019-04-16T06:36:44.102Z,100622.58
2019-04-16T06:37:27.721Z,100630.53
2019-04-16T06:38:10.304Z,100626.41
2019-04-16T06:38:57.878Z,100615.49
2019-04-16T06:40:01.060Z,100609.36
2019-04-16T06:40:47.546Z,100608.10
2019-04-16T06:41:48.422Z,100600.68
2019-04-16T06:42:38.820Z,100603.48
2019-04-16T06:43:25.738Z,100592.92
2019-04-16T06:44:00.416Z,100589.05
2019-04-16T06:45:08.542Z,100591.14
2019-04-16T06:46:05.487Z,100596.02
2019-04-16T06:47:10.833Z,100590.83
2019-04-16T06:48:04.332Z,100591.09
2019-04-16T06:49:00.701Z,100590.44
2019-04-16T06:49:59.477Z,100580.97
2019-04-16T06:50:50.337Z,100584.25
2019-04-16T06:51:45.865Z,100586.64
2019-04-16T06:52:41.053Z,100578.59
2019-04-16T06:53:37.428Z,100574.89
2019-04-16T06:54:41.860Z,100567.97
2019-04-16T06:55:34.975Z,100569.23
2019-04-16T06:56:22.802Z,100562.75
2019-04-16T06:57:22.086Z,100561.49
2019-04-16T06:58:21.382Z,100558.59
2019-04-16T06:59:29.435Z,100556.13
2019-04-16T07:00:34.070Z,100553.21
2019-04-16T07:01:26.034Z,100547.97
2019-04-16T07:02:30.193Z,100551.97
2019-04-16T07:03:27.040Z,100545.70
2019-04-16T07:04:10.043Z,100537.00
2019-04-16T07:05:01.182Z,100538.83
2019-04-16T07:06:05.732Z,100531.75
2019-04-16T07:07:01.952Z,100533.98
2019-04-16T07:08:05.788Z,100525.19
2019-04-16T07:09:04.015Z,100524.31
2019-04-16T07:09:46.000Z,100524.90
2019-04-16T07:10:28.918Z,100517.98
2019-04-16T07:11:05.594Z,100520.79
2019-04-16T07:11:54.356Z,100511.62
2019-04-16T07:12:28.568Z,100514.27
2019-04-16T07:13:11.201Z,100507.84
2019-04-16T07:13:50.956Z,100511.58
2019-04-16T07:14:28.881Z,100505.52
2019-04-16T07:15:07.042Z,100505.97
2019-04-16T07:15:44.977Z,100501.86
2019-04-16T07:16:27.893Z,100500.91
2019-04-16T07:17:03.639Z,100499.59
2019-04-16T07:17:41.794Z,100493.38
2019-04-16T07:18:21.271Z,100484.78
2019-04-16T07:18:59.487Z,100483.70
2019-04-16T07:19:39.397Z,100474.37
2019-04-16T07:20:18.319Z,100472.50
2019-04-16T07:20:56.253Z,100474.13
2019-04-16T07:21:35.260Z,100470.59
2019-04-16T07:22:13.253Z,100468.48
2019-04-16T07:22:52.989Z,100467.75
2019-04-16T07:23:30.739Z,100469.12
2019-04-16T07:24:08.858Z,100469.75
2019-04-16T07:24:49.511Z,100475.03
2019-04-16T07:25:29.578Z,100480.56
2019-04-16T07:26:13.551Z,100484.10
2019-04-16T07:26:50.345Z,100481.41
2019-04-16T07:27:38.370Z,100485.39
2019-04-16T07:28:25.832Z,100485.81
2019-04-16T07:29:12.584Z,100489.72
2019-04-16T07:29:53.779Z,100489.94
2019-04-16T07:30:46.717Z,100489.56
2019-04-16T07:31:37.593Z,100491.94
2019-04-16T07:32:42.930Z,100493.94
2019-04-16T07:33:43.882Z,100493.23
2019-04-16T07:34:38.591Z,100488.58
2019-04-16T07:35:33.881Z,100488.95
2019-04-16T07:36:32.911Z,100484.83
2019-04-16T07:37:41.192Z,100484.98
2019-04-16T07:38:36.089Z,100483.07
2019-04-16T07:39:30.057Z,100478.16
2019-04-16T07:40:23.047Z,100476.00
2019-04-16T07:41:20.363Z,100471.14
2019-04-16T07:42:28.425Z,100468.81
2019-04-16T07:43:25.117Z,100464.98
2019-04-16T07:44:23.300Z,100462.28
2019-04-16T07:45:30.729Z,100466.45
2019-04-16T07:46:40.100Z,100459.42
2019-04-16T07:47:37.593Z,100452.05
2019-04-16T07:48:45.834Z,100447.73
2019-04-16T07:49:43.204Z,100442.44
2019-04-16T07:50:37.815Z,100434.20
2019-04-16T07:51:28.238Z,100425.77
2019-04-16T07:52:17.897Z,100427.06
2019-04-16T07:53:14.280Z,100428.17
2019-04-16T07:54:15.051Z,100426.59
2019-04-16T07:55:23.738Z,100427.68
2019-04-16T07:56:06.570Z,100420.30
2019-04-16T07:56:47.905Z,100420.51
2019-04-16T07:57:25.927Z,100427.04
2019-04-16T07:58:05.575Z,100426.83
2019-04-16T07:58:44.652Z,100417.63
2019-04-16T07:59:24.302Z,100417.89
2019-04-16T08:00:08.200Z,100412.34
2019-04-16T08:00:44.515Z,100406.30
2019-04-16T08:01:23.712Z,100409.02
2019-04-16T08:02:03.745Z,100400.93
2019-04-16T08:02:43.399Z,100393.27
2019-04-16T08:03:26.197Z,100394.70
2019-04-16T08:04:03.168Z,100388.14
2019-04-16T08:04:41.216Z,100392.07
2019-04-16T08:05:19.479Z,100396.20
2019-04-16T08:05:59.032Z,100396.70
2019-04-16T08:06:37.021Z,100396.05
2019-04-16T08:07:20.171Z,100396.77
2019-04-16T08:07:56.331Z,100394.96
2019-04-16T08:08:34.260Z,100401.91
2019-04-16T08:09:12.571Z,100402.05
2019-04-16T08:09:50.995Z,100410.88
2019-04-16T08:10:28.949Z,100412.66
2019-04-16T08:11:07.055Z,100412.00
2019-04-16T08:11:45.168Z,100408.14
2019-04-16T08:12:30.347Z,100410.24